Time;durP1;ratioP1;P1;durP2;ratioP2;P2;SDS_P1;SDS_P2;PMS_P1;PMS_P2;Temp;Humidity;BMP_temperature;BMP_pressure;BME280_temperature;BME280_humidity;BME280_pressure;Samples;Min_cycle;Max_cycle;Signal;HPM_P1;HPM_P2
2023/08/06 00:01:59;;;;;;;;;;;;;;;33.06;38.84;96809.09;5092876;28;20276;-87
2023/08/06 00:04:25;;;;;;;;;;;;;;;33.12;39.10;96809.84;5092703;28;19919;-86
2023/08/06 00:06:51;;;;;;;;;;;;;;;32.88;39.68;96806.84;5092033;27;19916;-87
2023/08/06 00:09:17;;;;;;;;;;;;;;;32.43;40.25;96792.03;5074170;28;19923;-87
2023/08/06 00:11:43;;;;;;;;;;;;;;;32.34;40.67;96774.50;5090900;27;19924;-87
2023/08/06 00:14:09;;;;;;;;;;;;;;;32.15;40.97;96760.09;5072466;27;20400;-87
2023/08/06 00:16:35;;;;;;;;;;;;;;;32.19;40.95;96742.75;5077852;28;19926;-87
2023/08/06 00:19:02;;;;;;;;;;;;;;;32.22;40.98;96744.56;5074092;28;19922;-86
2023/08/06 00:21:28;;;;;;;;;;;;;;;32.00;41.55;96805.03;5092346;27;19916;-87
2023/08/06 00:23:54;;;;;;;;;;;;;;;32.00;41.48;96822.84;5091216;28;20006;-87
2023/08/06 00:26:20;;;;;;;;;;;;;;;32.40;40.92;96798.75;5092218;28;19967;-87
2023/08/06 00:28:46;;;;;;;;;;;;;;;32.81;39.43;96793.19;5074046;28;19959;-87
2023/08/06 00:31:12;;;;;;;;;;;;;;;32.81;39.81;96792.41;5074021;28;20309;-87
2023/08/06 00:33:38;;;;;;;;;;;;;;;32.79;39.51;96797.84;5090926;27;19916;-88
2023/08/06 00:36:04;;;;;;;;;;;;;;;32.86;39.33;96758.25;5092117;28;19920;-87
2023/08/06 00:38:30;;;;;;;;;;;;;;;32.72;39.63;96784.97;5091944;28;19923;-87
2023/08/06 00:40:56;;;;;;;;;;;;;;;32.54;40.50;96774.94;5091053;28;19916;-87
2023/08/06 00:43:22;;;;;;;;;;;;;;;32.10;40.69;96760.88;5073876;28;19923;-87
2023/08/06 00:45:48;;;;;;;;;;;;;;;31.58;41.97;96734.38;5091888;28;19923;-87
2023/08/06 00:48:15;;;;;;;;;;;;;;;30.83;44.84;96689.94;5092078;27;20431;-87
2023/08/06 00:50:41;;;;;;;;;;;;;;;28.84;53.66;96614.06;5091971;27;20388;-86
2023/08/06 00:53:07;;;;;;;;;;;;;;;27.93;59.25;96581.84;5091941;27;20327;-86
2023/08/06 00:55:33;;;;;;;;;;;;;;;27.51;63.35;96581.59;5091774;28;20345;-87
2023/08/06 00:57:59;;;;;;;;;;;;;;;29.68;50.93;96607.69;5090877;28;19992;-88
2023/08/06 01:00:25;;;;;;;;;;;;;;;31.05;46.14;96642.56;5091827;27;19916;-87
2023/08/06 01:02:52;;;;;;;;;;;;;;;32.04;42.50;96703.34;5091844;27;19916;-87
2023/08/06 01:05:20;;;;;;;;;;;;;;;32.07;42.40;96751.31;5091723;28;20385;-86
2023/08/06 01:07:49;;;;;;;;;;;;;;;32.20;41.68;96747.16;5091650;27;20376;-87
2023/08/06 01:10:20;;;;;;;;;;;;;;;32.07;41.86;96733.50;5091545;28;19916;-87
2023/08/06 01:12:52;;;;;;;;;;;;;;;32.28;41.46;96737.56;5081112;28;19928;-86
2023/08/06 01:15:22;;;;;;;;;;;;;;;32.25;41.13;96712.28;5071810;28;19916;-86
2023/08/06 01:17:48;;;;;;;;;;;;;;;32.36;41.57;96700.88;5071229;28;20274;-86
2023/08/06 01:20:14;;;;;;;;;;;;;;;32.90;40.29;96686.88;5071206;28;20384;-87
2023/08/06 01:22:40;;;;;;;;;;;;;;;33.20;39.86;96691.34;5071082;28;20388;-86
2023/08/06 01:25:06;;;;;;;;;;;;;;;33.43;39.12;96672.75;5071262;28;19967;-86
2023/08/06 01:27:44;;;;;;;;;;;;;;;33.46;38.74;96670.94;5070991;28;19917;-86
2023/08/06 01:30:17;;;;;;;;;;;;;;;33.53;38.22;96673.22;5071186;28;19977;-86
2023/08/06 01:32:45;;;;;;;;;;;;;;;32.92;39.68;96672.91;5071641;28;19917;-86
2023/08/06 01:35:13;;;;;;;;;;;;;;;32.64;40.46;96667.41;5070842;28;19917;-86
2023/08/06 01:37:40;;;;;;;;;;;;;;;32.51;40.61;96667.25;5053010;28;19923;-86
2023/08/06 01:40:15;;;;;;;;;;;;;;;32.89;40.10;96657.69;5070962;28;20373;-86
2023/08/06 01:42:41;;;;;;;;;;;;;;;32.84;39.85;96647.09;5071328;27;20373;-86
2023/08/06 01:45:07;;;;;;;;;;;;;;;32.85;40.19;96645.03;5070643;27;19916;-86
2023/08/06 01:47:33;;;;;;;;;;;;;;;32.73;40.25;96635.81;5070816;27;20366;-86
2023/08/06 01:50:00;;;;;;;;;;;;;;;32.51;41.09;96633.91;5071240;27;20007;-86
2023/08/06 01:52:27;;;;;;;;;;;;;;;32.77;40.64;96621.34;5070762;28;19920;-86
2023/08/06 01:54:53;;;;;;;;;;;;;;;32.95;39.70;96632.06;5070707;28;19916;-86
2023/08/06 01:57:19;;;;;;;;;;;;;;;32.88;39.74;96619.19;5052794;28;20303;-86
2023/08/06 01:59:45;;;;;;;;;;;;;;;32.70;40.25;96622.66;5070553;27;19917;-86
2023/08/06 02:02:11;;;;;;;;;;;;;;;32.19;41.76;96626.31;5070653;27;20020;-86
2023/08/06 02:04:36;;;;;;;;;;;;;;;32.35;41.22;96625.47;5070433;27;20007;-86
2023/08/06 02:07:03;;;;;;;;;;;;;;;32.64;40.52;96622.72;5071111;27;20348;-86
2023/08/06 02:09:29;;;;;;;;;;;;;;;32.84;40.40;96606.56;5052627;28;19923;-86
2023/08/06 02:11:55;;;;;;;;;;;;;;;33.21;39.80;96604.69;5073007;27;19928;-86
2023/08/06 02:14:21;;;;;;;;;;;;;;;33.57;39.02;96611.06;5090668;28;20002;-86
2023/08/06 02:16:47;;;;;;;;;;;;;;;33.78;38.31;96606.44;5080005;28;20007;-86
2023/08/06 02:19:13;;;;;;;;;;;;;;;34.03;38.10;96612.88;5070253;28;19923;-86
2023/08/06 02:21:39;;;;;;;;;;;;;;;34.21;37.71;96605.66;5070294;28;20424;-86
2023/08/06 02:24:05;;;;;;;;;;;;;;;34.35;37.44;96605.22;5070961;28;19916;-86
2023/08/06 02:26:31;;;;;;;;;;;;;;;34.38;37.16;96609.06;5070279;27;19917;-86
2023/08/06 02:28:57;;;;;;;;;;;;;;;34.23;37.12;96603.03;5070203;27;20296;-86
2023/08/06 02:31:23;;;;;;;;;;;;;;;33.93;38.02;96586.06;5070246;27;19924;-86
2023/08/06 02:33:49;;;;;;;;;;;;;;;33.94;38.10;96581.88;5070036;27;19923;-86
2023/08/06 02:36:15;;;;;;;;;;;;;;;33.91;38.22;96583.72;5070202;27;19952;-86
2023/08/06 02:38:41;;;;;;;;;;;;;;;34.04;37.89;96580.25;5070258;27;19968;-86
2023/08/06 02:41:07;;;;;;;;;;;;;;;34.08;37.66;96583.53;5070750;27;20318;-86
2023/08/06 02:43:33;;;;;;;;;;;;;;;34.17;37.42;96579.56;5070078;27;19969;-86
2023/08/06 02:45:59;;;;;;;;;;;;;;;34.32;37.45;96580.63;5070123;27;19961;-86
2023/08/06 02:48:25;;;;;;;;;;;;;;;34.48;37.03;96582.47;5069733;27;19920;-86
2023/08/06 02:50:51;;;;;;;;;;;;;;;34.52;37.14;96580.09;5070274;27;20266;-86
2023/08/06 02:53:17;;;;;;;;;;;;;;;34.50;36.98;96579.06;5070001;27;20353;-86
2023/08/06 02:55:47;;;;;;;;;;;;;;;34.30;37.15;96571.84;5070046;27;19923;-86
2023/08/06 02:58:17;;;;;;;;;;;;;;;34.18;37.68;96579.00;5074041;28;19917;-86
2023/08/06 03:00:43;;;;;;;;;;;;;;;34.37;36.94;96574.09;5073543;28;19919;-86
2023/08/06 03:03:09;;;;;;;;;;;;;;;34.34;36.87;96571.53;5073114;28;19924;-86
2023/08/06 03:05:35;;;;;;;;;;;;;;;33.79;38.35;96562.44;5073343;28;19912;-86
2023/08/06 03:08:01;;;;;;;;;;;;;;;33.19;39.11;96558.91;5073303;27;20308;-86
2023/08/06 03:10:27;;;;;;;;;;;;;;;33.11;39.38;96562.91;5073319;27;19924;-86
2023/08/06 03:12:53;;;;;;;;;;;;;;;32.97;39.89;96561.19;5084024;27;19932;-86
2023/08/06 03:15:19;;;;;;;;;;;;;;;33.12;39.88;96568.03;5075389;28;20289;-86
2023/08/06 03:17:45;;;;;;;;;;;;;;;33.27;39.13;96564.81;5072904;28;19913;-85
2023/08/06 03:20:11;;;;;;;;;;;;;;;33.14;39.61;96559.00;5073170;28;19962;-86
2023/08/06 03:22:37;;;;;;;;;;;;;;;33.09;39.72;96556.97;5073162;28;19921;-86
2023/08/06 03:25:04;;;;;;;;;;;;;;;33.04;39.82;96552.88;5073032;28;19919;-86
2023/08/06 03:27:30;;;;;;;;;;;;;;;33.08;39.84;96541.19;5086328;28;19926;-85
2023/08/06 03:29:56;;;;;;;;;;;;;;;33.29;39.88;96554.44;5093383;28;19916;-85
2023/08/06 03:32:22;;;;;;;;;;;;;;;33.62;38.79;96546.84;5074608;28;19916;-86
2023/08/06 03:34:48;;;;;;;;;;;;;;;33.92;38.20;96542.56;5072931;27;19917;-86
2023/08/06 03:37:14;;;;;;;;;;;;;;;33.84;38.14;96533.09;5072927;27;19928;-86
2023/08/06 03:39:40;;;;;;;;;;;;;;;33.47;38.96;96529.41;5072943;27;20293;-86
2023/08/06 03:42:06;;;;;;;;;;;;;;;33.32;39.41;96524.13;5054891;28;20286;-86
2023/08/06 03:44:32;;;;;;;;;;;;;;;33.26;39.35;96521.34;5072849;27;19916;-86
2023/08/06 03:46:58;;;;;;;;;;;;;;;33.07;40.16;96514.81;5072522;27;19917;-86
2023/08/06 03:49:24;;;;;;;;;;;;;;;32.60;41.45;96516.31;5055301;28;19927;-86
2023/08/06 03:51:50;;;;;;;;;;;;;;;32.76;40.78;96504.00;5072845;27;19917;-86
2023/08/06 03:54:16;;;;;;;;;;;;;;;32.97;40.51;96505.09;5081278;27;20007;-86
2023/08/06 03:56:42;;;;;;;;;;;;;;;33.19;39.74;96504.88;5103982;27;20370;-86
2023/08/06 03:59:08;;;;;;;;;;;;;;;33.41;39.02;96495.31;5199823;27;19919;-86
2023/08/06 04:01:34;;;;;;;;;;;;;;;33.15;39.37;96501.56;5199291;27;20387;-86
2023/08/06 04:04:00;;;;;;;;;;;;;;;33.03;40.22;96494.44;5199583;27;20331;-86
2023/08/06 04:06:26;;;;;;;;;;;;;;;33.09;39.99;96495.19;5078064;27;19921;-86
2023/08/06 04:08:52;;;;;;;;;;;;;;;33.26;39.90;96492.91;5072124;27;19920;-86
2023/08/06 04:11:18;;;;;;;;;;;;;;;33.56;38.36;96492.06;5072329;27;19924;-86
2023/08/06 04:13:44;;;;;;;;;;;;;;;33.53;38.62;96499.59;5082171;27;20385;-86
2023/08/06 04:16:10;;;;;;;;;;;;;;;33.36;39.43;96496.16;5072078;28;19916;-85
2023/08/06 04:18:36;;;;;;;;;;;;;;;32.84;40.19;96487.88;5072313;28;19916;-86
2023/08/06 04:21:03;;;;;;;;;;;;;;;32.94;40.52;96489.09;5072216;28;19963;-86
2023/08/06 04:23:29;;;;;;;;;;;;;;;33.24;39.82;96484.13;5091429;28;19916;-86
2023/08/06 04:25:58;;;;;;;;;;;;;;;33.55;39.14;96490.50;5092547;27;19920;-86
2023/08/06 04:28:24;;;;;;;;;;;;;;;33.10;39.51;96490.22;5092324;28;20007;-86
2023/08/06 04:30:50;;;;;;;;;;;;;;;33.01;40.24;96482.03;5092040;28;19927;-86
2023/08/06 04:33:16;;;;;;;;;;;;;;;33.30;40.04;96489.75;5092504;28;19919;-85
2023/08/06 04:35:42;;;;;;;;;;;;;;;33.89;38.60;96483.81;5092171;28;19923;-85
2023/08/06 04:38:08;;;;;;;;;;;;;;;34.30;37.78;96486.34;5092044;28;20425;-86
2023/08/06 04:40:35;;;;;;;;;;;;;;;34.47;37.48;96484.00;5072348;28;19920;-86
2023/08/06 04:43:01;;;;;;;;;;;;;;;34.57;36.91;96490.84;5072335;28;19963;-85
2023/08/06 04:45:27;;;;;;;;;;;;;;;34.48;37.02;96484.75;5053743;28;19927;-85
2023/08/06 04:47:53;;;;;;;;;;;;;;;34.36;37.06;96481.31;5071764;27;19916;-85
2023/08/06 04:50:19;;;;;;;;;;;;;;;34.08;37.97;96478.16;5071798;27;20381;-86
2023/08/06 04:52:45;;;;;;;;;;;;;;;34.17;37.63;96474.16;5071787;27;20301;-86
2023/08/06 04:55:11;;;;;;;;;;;;;;;34.12;37.73;96475.78;5053880;28;20395;-86
2023/08/06 04:57:37;;;;;;;;;;;;;;;33.91;38.02;96469.06;5071775;28;20399;-86
2023/08/06 05:00:04;;;;;;;;;;;;;;;33.83;38.48;96462.44;5071459;28;19916;-86
2023/08/06 05:02:32;;;;;;;;;;;;;;;33.67;38.69;96447.13;5071663;28;19916;-86
2023/08/06 05:04:58;;;;;;;;;;;;;;;33.43;39.23;96447.94;5071595;28;19923;-86
2023/08/06 05:07:24;;;;;;;;;;;;;;;33.43;39.41;96444.31;5071431;27;19920;-86
2023/08/06 05:09:50;;;;;;;;;;;;;;;33.66;38.88;96444.81;5071335;27;20432;-86
2023/08/06 05:12:16;;;;;;;;;;;;;;;33.71;38.81;96439.06;5071719;27;19924;-86
2023/08/06 05:14:42;;;;;;;;;;;;;;;33.76;38.92;96441.06;5071099;28;19916;-86
2023/08/06 05:17:08;;;;;;;;;;;;;;;34.00;38.63;96435.22;5071274;27;19917;-86
2023/08/06 05:19:34;;;;;;;;;;;;;;;34.27;38.05;96436.16;5070520;27;19920;-86
2023/08/06 05:22:01;;;;;;;;;;;;;;;34.53;37.89;96422.00;5071183;27;20389;-86
2023/08/06 05:24:27;;;;;;;;;;;;;;;34.75;37.17;96415.88;5071386;28;19917;-86
2023/08/06 05:26:53;;;;;;;;;;;;;;;34.91;37.21;96422.59;5071031;27;19917;-86
2023/08/06 05:29:19;;;;;;;;;;;;;;;34.92;37.23;96406.22;5071497;27;19916;-86
2023/08/06 05:31:45;;;;;;;;;;;;;;;34.99;37.01;96406.34;5071065;27;19916;-86
2023/08/06 05:34:11;;;;;;;;;;;;;;;34.89;36.91;96398.78;5070947;27;19924;-86
2023/08/06 05:36:38;;;;;;;;;;;;;;;34.76;37.74;96408.09;5071170;27;19917;-86
2023/08/06 05:39:04;;;;;;;;;;;;;;;34.63;37.28;96394.59;5071139;28;19921;-86
2023/08/06 05:41:30;;;;;;;;;;;;;;;34.25;37.88;96398.09;5071014;27;19924;-86
2023/08/06 05:43:56;;;;;;;;;;;;;;;33.95;38.70;96389.78;5070690;27;19924;-86
2023/08/06 05:46:22;;;;;;;;;;;;;;;34.10;38.83;96395.00;5071325;27;19917;-86
2023/08/06 05:48:48;;;;;;;;;;;;;;;34.44;37.40;96384.56;5052897;28;19940;-86
2023/08/06 05:51:16;;;;;;;;;;;;;;;34.31;38.19;96378.84;5071077;27;19938;-86
2023/08/06 05:53:42;;;;;;;;;;;;;;;34.39;38.86;96374.81;5070714;28;20385;-86
2023/08/06 05:56:08;;;;;;;;;;;;;;;34.69;38.34;96383.84;5070848;27;19917;-86
2023/08/06 05:58:34;;;;;;;;;;;;;;;35.01;37.86;96380.88;5070436;27;19916;-86
2023/08/06 06:01:00;;;;;;;;;;;;;;;35.24;37.66;96366.97;5070767;27;20034;-86
2023/08/06 06:03:26;;;;;;;;;;;;;;;35.34;37.02;96362.31;5071176;27;20441;-86
2023/08/06 06:05:52;;;;;;;;;;;;;;;35.10;37.15;96356.88;5070673;28;19968;-86
2023/08/06 06:08:18;;;;;;;;;;;;;;;35.07;36.97;96352.28;5070557;28;19924;-86
2023/08/06 06:10:44;;;;;;;;;;;;;;;34.94;36.81;96347.31;5070165;27;19921;-86
2023/08/06 06:13:10;;;;;;;;;;;;;;;34.68;37.76;96353.03;5083692;27;19929;-86
2023/08/06 06:15:37;;;;;;;;;;;;;;;34.71;37.53;96351.94;5090687;28;20288;-86
2023/08/06 06:18:03;;;;;;;;;;;;;;;34.69;37.21;96351.72;5090913;27;19924;-86
2023/08/06 06:20:29;;;;;;;;;;;;;;;34.52;37.94;96342.69;5088083;28;19920;-86
2023/08/06 06:22:55;;;;;;;;;;;;;;;34.77;37.32;96337.56;5052503;28;20019;-86
2023/08/06 06:25:21;;;;;;;;;;;;;;;34.94;36.87;96341.59;5070124;27;20369;-86
2023/08/06 06:27:47;;;;;;;;;;;;;;;35.08;37.00;96339.56;5070291;27;20019;-85
2023/08/06 06:30:14;;;;;;;;;;;;;;;35.17;36.42;96325.56;5071160;27;20006;-85
2023/08/06 06:32:40;;;;;;;;;;;;;;;34.99;36.88;96329.31;5080267;28;20388;-85
2023/08/06 06:35:06;;;;;;;;;;;;;;;34.90;36.70;96329.00;5094195;27;19974;-85
2023/08/06 06:37:32;;;;;;;;;;;;;;;34.93;36.74;96330.75;5091087;28;19916;-85
2023/08/06 06:39:58;;;;;;;;;;;;;;;34.97;36.16;96328.34;5073750;27;19917;-85
2023/08/06 06:42:24;;;;;;;;;;;;;;;34.92;35.77;96332.06;5074119;27;20019;-85
2023/08/06 06:44:51;;;;;;;;;;;;;;;34.65;36.32;96332.09;5073737;27;19917;-85
2023/08/06 06:47:17;;;;;;;;;;;;;;;34.48;36.23;96328.00;5073471;28;19923;-85
2023/08/06 06:49:43;;;;;;;;;;;;;;;34.29;35.91;96325.22;5073738;27;19916;-85
2023/08/06 06:52:09;;;;;;;;;;;;;;;33.89;37.64;96306.50;5073631;27;20377;-84
2023/08/06 06:54:35;;;;;;;;;;;;;;;33.25;38.30;96297.13;5073878;27;19950;-85
2023/08/06 06:57:01;;;;;;;;;;;;;;;33.23;38.40;96317.59;5073578;27;19920;-85
2023/08/06 06:59:27;;;;;;;;;;;;;;;33.39;38.58;96312.97;5055647;28;19965;-85
2023/08/06 07:01:53;;;;;;;;;;;;;;;33.70;38.22;96315.06;5073689;27;19916;-85
2023/08/06 07:04:19;;;;;;;;;;;;;;;33.97;37.40;96316.72;5055744;28;20281;-85
2023/08/06 07:06:45;;;;;;;;;;;;;;;34.00;37.65;96318.44;5073464;27;19928;-85
2023/08/06 07:09:11;;;;;;;;;;;;;;;34.13;36.66;96329.16;5072900;27;19916;-86
2023/08/06 07:11:37;;;;;;;;;;;;;;;33.87;37.47;96312.72;5076338;28;19968;-86
2023/08/06 07:14:03;;;;;;;;;;;;;;;33.87;38.02;96338.38;5093430;28;19916;-86
2023/08/06 07:16:29;;;;;;;;;;;;;;;33.94;37.57;96359.75;5093374;28;20292;-86
2023/08/06 07:18:55;;;;;;;;;;;;;;;33.92;37.14;96376.59;5093308;28;19927;-85
2023/08/06 07:21:21;;;;;;;;;;;;;;;33.50;37.14;96374.63;5075302;28;19927;-84
2023/08/06 07:23:49;;;;;;;;;;;;;;;32.95;37.66;96359.84;5093050;28;19916;-84
2023/08/06 07:26:16;;;;;;;;;;;;;;;32.96;37.96;96363.41;5075503;27;20333;-84
2023/08/06 07:28:42;;;;;;;;;;;;;;;32.58;38.74;96363.34;5088890;28;19923;-85
2023/08/06 07:31:08;;;;;;;;;;;;;;;32.69;38.97;96368.94;5072963;28;20026;-85
2023/08/06 07:33:34;;;;;;;;;;;;;;;32.04;39.36;96371.84;5073009;27;20392;-85
2023/08/06 07:36:00;;;;;;;;;;;;;;;32.18;39.27;96372.00;5073019;27;19917;-85
2023/08/06 07:38:26;;;;;;;;;;;;;;;31.35;40.82;96370.47;5072633;27;20402;-85
2023/08/06 07:40:52;;;;;;;;;;;;;;;31.78;39.99;96370.75;5072912;28;19921;-85
2023/08/06 07:43:18;;;;;;;;;;;;;;;32.07;38.49;96370.78;5072105;27;19916;-85
2023/08/06 07:45:44;;;;;;;;;;;;;;;32.17;38.21;96376.91;5073306;27;20420;-85
2023/08/06 07:48:10;;;;;;;;;;;;;;;32.04;37.86;96369.00;5072625;27;20288;-85
2023/08/06 07:50:36;;;;;;;;;;;;;;;32.08;38.36;96374.41;5072697;27;19917;-86
2023/08/06 07:53:02;;;;;;;;;;;;;;;32.29;38.13;96366.97;5072623;28;19951;-86
2023/08/06 07:55:28;;;;;;;;;;;;;;;32.41;37.27;96371.25;5072621;27;20304;-86
2023/08/06 07:57:54;;;;;;;;;;;;;;;32.60;37.23;96374.19;5054635;28;19963;-86
2023/08/06 08:00:20;;;;;;;;;;;;;;;32.86;36.36;96362.28;5072766;27;19984;-85
2023/08/06 08:02:46;;;;;;;;;;;;;;;32.75;36.54;96361.09;5055270;28;20077;-86
2023/08/06 08:05:12;;;;;;;;;;;;;;;32.77;36.42;96357.69;5072531;27;19923;-86
2023/08/06 08:07:38;;;;;;;;;;;;;;;32.81;37.05;96371.63;5071899;27;19924;-86
2023/08/06 08:10:05;;;;;;;;;;;;;;;33.06;35.81;96382.47;5072456;28;20026;-86
2023/08/06 08:12:31;;;;;;;;;;;;;;;32.79;35.82;96382.78;5054145;27;20015;-86
2023/08/06 08:14:57;;;;;;;;;;;;;;;32.59;36.57;96386.84;5072490;28;19917;-86
2023/08/06 08:17:23;;;;;;;;;;;;;;;32.34;37.15;96390.97;5072198;28;20027;-85
2023/08/06 08:19:49;;;;;;;;;;;;;;;32.29;35.90;96380.41;5072638;28;20444;-86
2023/08/06 08:22:15;;;;;;;;;;;;;;;32.03;36.83;96384.50;5071958;27;19927;-86
2023/08/06 08:24:41;;;;;;;;;;;;;;;31.93;37.47;96379.66;5072192;27;19923;-85
2023/08/06 08:27:07;;;;;;;;;;;;;;;32.15;37.39;96385.19;5054027;28;20363;-86
2023/08/06 08:29:33;;;;;;;;;;;;;;;31.53;37.27;96386.16;5072145;27;20003;-86
2023/08/06 08:31:59;;;;;;;;;;;;;;;31.27;37.41;96390.13;5072109;27;19917;-86
2023/08/06 08:34:25;;;;;;;;;;;;;;;31.22;37.79;96378.81;5072013;27;19924;-86
2023/08/06 08:36:51;;;;;;;;;;;;;;;30.93;37.93;96385.91;5072368;27;19917;-85
2023/08/06 08:39:17;;;;;;;;;;;;;;;31.02;38.97;96379.94;5072161;27;19917;-86
2023/08/06 08:41:43;;;;;;;;;;;;;;;31.27;38.17;96364.59;5053982;28;19931;-86
2023/08/06 08:44:12;;;;;;;;;;;;;;;30.95;38.80;96380.47;5071840;27;19916;-86
2023/08/06 08:46:40;;;;;;;;;;;;;;;31.03;39.11;96375.81;5071714;28;19923;-86
2023/08/06 08:49:06;;;;;;;;;;;;;;;31.33;38.28;96370.25;5071896;28;20365;-86
2023/08/06 08:51:36;;;;;;;;;;;;;;;30.61;40.29;96376.19;5071386;28;19917;-86
2023/08/06 08:54:03;;;;;;;;;;;;;;;31.39;36.88;96360.41;5071076;27;20434;-86
2023/08/06 08:56:29;;;;;;;;;;;;;;;31.19;38.54;96385.53;5071557;28;19923;-86
2023/08/06 08:58:55;;;;;;;;;;;;;;;31.27;37.17;96383.69;5071774;28;19921;-86
2023/08/06 09:01:21;;;;;;;;;;;;;;;31.37;37.76;96385.69;5071572;27;19916;-85
2023/08/06 09:03:47;;;;;;;;;;;;;;;31.89;36.19;96382.78;5071593;27;19916;-85
2023/08/06 09:06:15;;;;;;;;;;;;;;;31.47;37.20;96363.47;5071125;28;19923;-85
2023/08/06 09:08:49;;;;;;;;;;;;;;;31.36;36.41;96358.63;5071720;27;19916;-85
2023/08/06 09:11:16;;;;;;;;;;;;;;;31.36;37.76;96357.84;5076000;27;19928;-85
2023/08/06 09:13:42;;;;;;;;;;;;;;;30.96;38.24;96342.34;5074529;27;19932;-84
2023/08/06 09:16:08;;;;;;;;;;;;;;;30.53;38.26;96344.00;5074133;28;20338;-85
2023/08/06 09:18:34;;;;;;;;;;;;;;;30.73;38.15;96352.22;5091742;27;19917;-84
2023/08/06 09:21:00;;;;;;;;;;;;;;;31.06;36.94;96346.44;5091289;28;19920;-84
2023/08/06 09:23:30;;;;;;;;;;;;;;;30.93;37.88;96348.28;5056572;28;20304;-84
2023/08/06 09:25:59;;;;;;;;;;;;;;;30.90;37.36;96350.09;5091544;27;19916;-84
2023/08/06 09:28:37;;;;;;;;;;;;;;;31.14;37.85;96361.59;5084204;28;19920;-85
2023/08/06 09:31:03;;;;;;;;;;;;;;;31.44;36.42;96372.28;5071098;28;20460;-85
2023/08/06 09:33:29;;;;;;;;;;;;;;;31.62;35.90;96374.47;5071072;27;19964;-85
2023/08/06 09:35:55;;;;;;;;;;;;;;;31.53;35.65;96372.72;5070819;27;19960;-84
2023/08/06 09:38:21;;;;;;;;;;;;;;;31.29;36.04;96378.28;5074960;27;20023;-87
2023/08/06 09:40:47;;;;;;;;;;;;;;;31.30;36.31;96388.31;5091410;28;20464;-85
2023/08/06 09:43:13;;;;;;;;;;;;;;;31.15;36.52;96393.56;5091296;27;19916;-84
2023/08/06 09:45:39;;;;;;;;;;;;;;;30.76;38.11;96399.31;5078508;27;19920;-84
2023/08/06 09:48:06;;;;;;;;;;;;;;;30.92;36.68;96389.28;5070735;27;19923;-84
2023/08/06 09:50:33;;;;;;;;;;;;;;;30.90;37.10;96389.03;5070828;27;19921;-84
2023/08/06 09:53:00;;;;;;;;;;;;;;;30.84;37.06;96379.72;5070818;27;19946;-84
2023/08/06 09:55:26;;;;;;;;;;;;;;;30.29;37.43;96383.44;5070541;28;20373;-84
2023/08/06 09:57:52;;;;;;;;;;;;;;;30.30;38.54;96374.44;5070753;28;19951;-84
2023/08/06 10:00:19;;;;;;;;;;;;;;;30.45;37.85;96388.34;5070670;28;19924;-83
2023/08/06 10:02:45;;;;;;;;;;;;;;;30.53;36.85;96395.78;5071000;27;19943;-83
2023/08/06 10:05:11;;;;;;;;;;;;;;;30.33;37.06;96403.81;5070269;28;19917;-84
2023/08/06 10:07:39;;;;;;;;;;;;;;;30.22;36.87;96392.47;5052561;28;19917;-84
2023/08/06 10:10:05;;;;;;;;;;;;;;;29.89;37.50;96396.06;5070399;28;20353;-84
2023/08/06 10:12:34;;;;;;;;;;;;;;;30.06;37.54;96394.78;5090139;27;19924;-84
2023/08/06 10:15:01;;;;;;;;;;;;;;;30.40;37.04;96389.91;5090969;27;19916;-84
2023/08/06 10:17:28;;;;;;;;;;;;;;;30.43;36.62;96388.88;5090861;27;19951;-84
2023/08/06 10:19:57;;;;;;;;;;;;;;;30.58;36.69;96372.34;5058457;27;20386;-84
2023/08/06 10:22:24;;;;;;;;;;;;;;;30.26;37.46;96373.16;5070358;28;19924;-84
2023/08/06 10:24:50;;;;;;;;;;;;;;;30.14;37.97;96377.28;5070593;28;20048;-83
2023/08/06 10:27:20;;;;;;;;;;;;;;;30.12;37.96;96377.03;5070214;28;20372;-84
2023/08/06 10:29:46;;;;;;;;;;;;;;;30.11;37.47;96390.41;5070284;28;19921;-84
2023/08/06 10:32:12;;;;;;;;;;;;;;;30.33;37.64;96401.75;5069992;27;19916;-84
2023/08/06 10:34:55;;;;;;;;;;;;;;;30.53;37.68;96404.28;5070309;27;20350;-84
2023/08/06 10:37:23;;;;;;;;;;;;;;;30.61;37.11;96404.53;5070702;28;19925;-84
2023/08/06 10:39:50;;;;;;;;;;;;;;;30.38;36.85;96405.84;5052271;28;19916;-84
2023/08/06 10:42:27;;;;;;;;;;;;;;;30.17;36.33;96401.72;5069879;28;20270;-84
2023/08/06 10:45:13;;;;;;;;;;;;;;;29.91;37.90;96399.16;5070150;28;19960;-84
2023/08/06 10:47:39;;;;;;;;;;;;;;;30.30;37.33;96399.13;5069840;27;19989;-84
2023/08/06 10:50:12;;;;;;;;;;;;;;;29.84;37.90;96396.84;5070363;28;19924;-84
2023/08/06 10:52:38;;;;;;;;;;;;;;;29.91;37.50;96387.84;5073496;27;19923;-84
2023/08/06 10:55:04;;;;;;;;;;;;;;;29.87;37.92;96384.50;5090279;28;20300;-84
2023/08/06 10:57:30;;;;;;;;;;;;;;;30.25;37.40;96386.53;5090183;27;19924;-84
2023/08/06 10:59:56;;;;;;;;;;;;;;;29.83;36.89;96384.75;5090101;28;19916;-84
2023/08/06 11:02:22;;;;;;;;;;;;;;;29.84;37.65;96388.34;5088638;28;19949;-84
2023/08/06 11:04:49;;;;;;;;;;;;;;;30.13;36.96;96387.06;5070092;28;19916;-84
2023/08/06 11:07:15;;;;;;;;;;;;;;;30.21;36.76;96391.69;5069716;28;19921;-84
2023/08/06 11:09:41;;;;;;;;;;;;;;;30.24;36.92;96393.50;5067508;27;19923;-84
2023/08/06 11:12:10;;;;;;;;;;;;;;;30.18;36.59;96394.78;5085947;27;19924;-84
2023/08/06 11:14:36;;;;;;;;;;;;;;;30.36;36.45;96395.06;5090223;27;19916;-84
2023/08/06 11:17:02;;;;;;;;;;;;;;;30.11;36.55;96398.88;5072158;27;20002;-84
2023/08/06 11:19:29;;;;;;;;;;;;;;;30.12;36.66;96399.66;5093479;27;19920;-83
2023/08/06 11:21:55;;;;;;;;;;;;;;;30.19;36.79;96401.97;5058492;28;19976;-84
2023/08/06 11:24:23;;;;;;;;;;;;;;;30.12;36.46;96411.00;5093495;27;19920;-84
2023/08/06 11:26:49;;;;;;;;;;;;;;;30.18;36.37;96417.44;5087713;27;19995;-84
2023/08/06 11:29:15;;;;;;;;;;;;;;;29.76;36.86;96418.44;5073324;27;19920;-83
2023/08/06 11:31:41;;;;;;;;;;;;;;;29.92;37.07;96417.69;5072808;27;19916;-84
2023/08/06 11:34:08;;;;;;;;;;;;;;;30.08;36.84;96426.16;5073221;27;19916;-84
2023/08/06 11:36:36;;;;;;;;;;;;;;;30.08;36.28;96429.00;5072896;28;19917;-84
2023/08/06 11:39:02;;;;;;;;;;;;;;;29.60;37.67;96434.06;5073232;27;19924;-83
2023/08/06 11:41:29;;;;;;;;;;;;;;;30.02;37.43;96433.13;5072675;28;19924;-83
2023/08/06 11:43:55;;;;;;;;;;;;;;;30.50;35.79;96436.47;5078690;28;19920;-84
2023/08/06 11:46:23;;;;;;;;;;;;;;;30.60;35.19;96446.25;5092741;27;19937;-84
2023/08/06 11:48:55;;;;;;;;;;;;;;;30.23;36.12;96442.13;5093022;27;19916;-84
2023/08/06 11:51:32;;;;;;;;;;;;;;;30.05;36.39;96446.25;5092999;28;20304;-83
2023/08/06 11:53:58;;;;;;;;;;;;;;;30.00;36.13;96459.13;5074778;28;19916;-83
2023/08/06 11:56:26;;;;;;;;;;;;;;;29.79;36.50;96452.16;5074802;27;19927;-83
2023/08/06 11:58:52;;;;;;;;;;;;;;;28.56;41.01;96446.41;5092876;27;20012;-83
2023/08/06 12:01:18;;;;;;;;;;;;;;;28.76;37.64;96451.94;5088028;28;19917;-83
2023/08/06 12:03:44;;;;;;;;;;;;;;;28.75;38.40;96445.53;5072462;28;19916;-82
2023/08/06 12:06:10;;;;;;;;;;;;;;;28.79;39.04;96450.16;5072713;28;19968;-82
2023/08/06 12:08:38;;;;;;;;;;;;;;;29.14;37.79;96457.03;5072572;27;19923;-83
2023/08/06 12:11:04;;;;;;;;;;;;;;;29.16;37.68;96465.78;5088395;27;19924;-83
2023/08/06 12:13:30;;;;;;;;;;;;;;;28.94;37.91;96467.72;5070790;27;19938;-83
2023/08/06 12:15:57;;;;;;;;;;;;;;;28.48;39.69;96468.69;5072508;28;19920;-83
2023/08/06 12:18:23;;;;;;;;;;;;;;;28.69;38.79;96469.38;5062466;28;20398;-83
2023/08/06 12:20:49;;;;;;;;;;;;;;;28.30;39.06;96466.25;5052402;28;19916;-82
2023/08/06 12:23:16;;;;;;;;;;;;;;;27.64;40.30;96465.59;5052095;28;19952;-83
2023/08/06 12:25:42;;;;;;;;;;;;;;;28.13;39.74;96467.38;5052213;28;19917;-82
2023/08/06 12:28:09;;;;;;;;;;;;;;;28.94;38.74;96459.25;5050243;28;19928;-83
2023/08/06 12:30:35;;;;;;;;;;;;;;;28.83;37.99;96467.66;5052125;28;19920;-83
2023/08/06 12:33:01;;;;;;;;;;;;;;;29.32;37.96;96475.63;5051964;28;20411;-83
2023/08/06 12:35:27;;;;;;;;;;;;;;;29.23;37.28;96475.84;5052868;28;19917;-83
2023/08/06 12:37:54;;;;;;;;;;;;;;;29.25;37.12;96478.94;5052201;28;19912;-83
2023/08/06 12:40:20;;;;;;;;;;;;;;;29.27;37.51;96476.38;5051993;28;20298;-83
2023/08/06 12:42:46;;;;;;;;;;;;;;;28.98;37.03;96479.56;5051577;28;19921;-83
2023/08/06 12:45:12;;;;;;;;;;;;;;;27.51;41.46;96477.28;5051897;28;20003;-83